Aqua Ramon, Colorado
Current Conditions -  °F | °C
As of 4:50 PM on Monday 22 Dec 2014 (Local Time) from KRCV Reporting Station
Scattered Clouds Scattered Clouds  
Wind Chill: 17°   Ceiling: Unl
Heat Index: 28°   Visibility: 10mi
Dew Point: 17°   Wind: 13mph
Humidity: 63%   Direction: 290°WNW
Pressure: 29.72"   Gusts: 18mph
Location:  37.6359°N, 106.449°W
Report Text: KRCV 222350Z AUTO 29011G16KT 10SM SCT043 SCT050 SCT120 M02/M08 A2972 RMK AO2 T10241085 10056 21040
Loading
Personal Weather Stations






























Interactive Weather Map New forecast layout! Learn more

10-Day Weather Forecast

Advertisements
Track Severe Weather on mobile